Terminal Aerodrome Forecast
Issued by NWS Detroit/Pontiac, MI

Home | Current Version | Previous Version | Text Only | Print | Product List | Glossary On
Versions: 1 2 3 4 5 6 7 8 9 10 11 12 13 14 15 16 17 18 19 20 21 22 23 24 25 26 27
000
FTUS43 KDTX 310258 AAA
TAFDTW
TAF AMD
KDTW 310258Z 3103/0106 32005KT P6SM SKC
     FM310700 03005KT P6SM SCT250
     FM311400 07005KT P6SM BKN250
     FM311900 12007KT P6SM FEW050 BKN200
     FM010000 08006KT P6SM BKN200=

USA.gov is the U.S. government's official web portal to all federal, state and local government web resources and services.